Time;durP1;ratioP1;P1;durP2;ratioP2;P2;SDS_P1;SDS_P2;PMS_P1;PMS_P2;Temp;Humidity;BMP_temperature;BMP_pressure;BME280_temperature;BME280_humidity;BME280_pressure;Samples;Min_cycle;Max_cycle;Signal;HPM_P1;HPM_P2
2023/04/15 00:02:17;;;;;;;9.18;3.90;;;7.20;99.90;;;;;;4968827;28;20046;-70
2023/04/15 00:04:45;;;;;;;8.18;3.80;;;7.20;99.90;;;;;;4966523;28;20053;-70
2023/04/15 00:07:11;;;;;;;10.27;3.83;;;7.10;99.90;;;;;;4964857;28;20054;-70
2023/04/15 00:09:37;;;;;;;8.20;4.20;;;7.10;99.90;;;;;;4968592;28;20057;-70
2023/04/15 00:12:04;;;;;;;12.77;4.05;;;7.10;99.90;;;;;;4969868;28;20119;-70
2023/04/15 00:14:30;;;;;;;8.80;3.85;;;7.10;99.90;;;;;;4985760;28;20451;-70
2023/04/15 00:16:56;;;;;;;9.57;4.13;;;7.00;99.90;;;;;;4954635;28;20043;-70
2023/04/15 00:19:23;;;;;;;8.38;3.72;;;7.00;99.90;;;;;;4965347;28;20303;-71
2023/04/15 00:21:49;;;;;;;8.68;3.92;;;7.00;99.90;;;;;;4963293;28;20054;-70
2023/04/15 00:24:14;;;;;;;10.02;4.57;;;6.90;99.90;;;;;;4960554;28;20041;-70
2023/04/15 00:26:40;;;;;;;11.10;4.95;;;6.90;99.90;;;;;;4965089;28;20031;-70
2023/04/15 00:29:06;;;;;;;7.20;3.97;;;6.90;99.90;;;;;;4963567;28;20038;-70
2023/04/15 00:31:31;;;;;;;9.52;4.05;;;6.80;99.90;;;;;;4964385;28;20134;-70
2023/04/15 00:33:58;;;;;;;8.63;4.32;;;6.70;99.90;;;;;;4961680;28;20043;-70
2023/04/15 00:36:25;;;;;;;10.95;4.85;;;6.70;99.90;;;;;;4964296;28;20510;-70
2023/04/15 00:38:51;;;;;;;10.35;4.63;;;6.80;99.90;;;;;;4959568;28;20101;-70
2023/04/15 00:41:18;;;;;;;9.75;4.80;;;6.80;99.90;;;;;;4963903;28;20055;-70
2023/04/15 00:43:43;;;;;;;10.32;4.20;;;6.80;99.90;;;;;;4962550;28;20125;-70
2023/04/15 00:46:13;;;;;;;9.68;4.82;;;6.80;99.90;;;;;;4962332;28;20035;-71
2023/04/15 00:48:40;;;;;;;9.45;4.90;;;6.80;99.90;;;;;;4981723;28;20122;-70
2023/04/15 00:51:06;;;;;;;9.48;5.15;;;6.80;99.90;;;;;;4963779;28;20046;-70
2023/04/15 00:53:32;;;;;;;11.32;5.10;;;6.70;99.90;;;;;;4960183;28;20047;-70
2023/04/15 00:55:57;;;;;;;11.23;5.32;;;6.70;99.90;;;;;;4968327;28;20049;-70
2023/04/15 00:58:25;;;;;;;10.98;5.13;;;6.70;99.90;;;;;;4963538;28;20343;-70
2023/04/15 01:00:53;;;;;;;9.60;4.90;;;6.70;99.90;;;;;;4982583;28;20491;-70
2023/04/15 01:03:19;;;;;;;11.75;5.40;;;6.60;99.90;;;;;;4956864;28;20517;-70
2023/04/15 01:05:45;;;;;;;10.07;4.95;;;6.60;99.90;;;;;;4963875;28;20127;-71
2023/04/15 01:08:11;;;;;;;10.27;5.28;;;6.60;99.90;;;;;;4964422;28;20122;-70
2023/04/15 01:10:38;;;;;;;11.13;5.82;;;6.50;99.90;;;;;;4961375;28;20035;-70
2023/04/15 01:13:04;;;;;;;13.75;5.63;;;6.50;99.90;;;;;;4950610;28;20305;-70
2023/04/15 01:15:30;;;;;;;10.10;5.18;;;6.40;99.90;;;;;;4960042;28;20059;-70
2023/04/15 01:17:58;;;;;;;8.90;5.25;;;6.40;99.90;;;;;;4967631;28;20086;-70
2023/04/15 01:20:23;;;;;;;10.73;5.55;;;6.30;99.90;;;;;;4962222;28;20034;-70
2023/04/15 01:22:50;;;;;;;9.35;5.72;;;6.30;99.90;;;;;;4959922;28;20130;-70
2023/04/15 01:25:18;;;;;;;10.63;5.47;;;6.40;99.90;;;;;;4976316;28;20067;-70
2023/04/15 01:27:44;;;;;;;10.80;5.82;;;6.30;99.90;;;;;;4966412;28;20053;-70
2023/04/15 01:30:10;;;;;;;9.50;5.68;;;6.40;99.90;;;;;;4957110;28;20047;-70
2023/04/15 01:32:37;;;;;;;9.40;6.05;;;6.30;99.90;;;;;;4977949;28;20144;-70
2023/04/15 01:35:02;;;;;;;9.50;5.70;;;6.30;99.90;;;;;;4961160;28;20498;-70
2023/04/15 01:37:28;;;;;;;7.72;6.25;;;6.30;99.90;;;;;;4964554;28;20046;-70
2023/04/15 01:39:56;;;;;;;10.30;6.13;;;6.30;99.90;;;;;;4973632;28;20121;-70
2023/04/15 01:42:21;;;;;;;10.98;6.28;;;6.30;99.90;;;;;;4963026;28;20117;-70
2023/04/15 01:44:47;;;;;;;14.20;6.68;;;6.20;99.90;;;;;;4959715;28;20035;-70
2023/04/15 01:47:13;;;;;;;11.25;6.07;;;6.30;99.90;;;;;;4962834;28;20057;-70
2023/04/15 01:49:39;;;;;;;8.43;5.90;;;6.30;99.90;;;;;;4978143;28;20483;-70
2023/04/15 01:52:05;;;;;;;10.48;6.30;;;6.20;99.90;;;;;;4957511;28;20041;-70
2023/04/15 01:54:31;;;;;;;10.80;6.28;;;6.20;99.90;;;;;;4962484;28;20379;-70
2023/04/15 01:56:56;;;;;;;11.68;6.95;;;6.20;99.90;;;;;;4964774;28;20074;-70
2023/04/15 01:59:22;;;;;;;9.57;6.55;;;6.20;99.90;;;;;;4972807;28;20043;-70
2023/04/15 02:01:48;;;;;;;9.30;6.70;;;6.10;99.90;;;;;;4960691;28;20127;-70
2023/04/15 02:04:16;;;;;;;11.85;6.75;;;6.20;99.90;;;;;;4961191;28;20039;-70
2023/04/15 02:06:45;;;;;;;12.23;6.78;;;6.10;99.90;;;;;;4962165;28;20556;-70
2023/04/15 02:09:11;;;;;;;8.57;6.25;;;6.10;99.90;;;;;;4962371;28;20058;-70
2023/04/15 02:11:36;;;;;;;12.05;6.35;;;6.00;99.90;;;;;;4957609;28;20422;-70
2023/04/15 02:14:05;;;;;;;11.73;6.22;;;6.00;99.90;;;;;;4967348;28;20112;-70
2023/04/15 02:16:32;;;;;;;10.85;5.88;;;5.90;99.90;;;;;;4965771;28;20081;-70
2023/04/15 02:18:59;;;;;;;12.65;6.30;;;6.00;99.90;;;;;;4962462;28;20046;-70
2023/04/15 02:21:28;;;;;;;9.13;7.45;;;5.90;99.90;;;;;;4964339;28;20046;-70
2023/04/15 02:23:54;;;;;;;9.35;7.00;;;5.90;99.90;;;;;;4966341;28;20038;-70
2023/04/15 02:26:21;;;;;;;11.52;6.47;;;5.80;99.90;;;;;;4959903;28;20038;-70
2023/04/15 02:28:48;;;;;;;13.18;7.25;;;5.80;99.90;;;;;;4976130;28;20513;-70
2023/04/15 02:31:13;;;;;;;14.68;7.35;;;5.70;99.90;;;;;;4983295;28;20057;-70
2023/04/15 02:33:39;;;;;;;10.18;7.20;;;5.60;99.90;;;;;;4985075;28;20043;-70
2023/04/15 02:36:07;;;;;;;11.27;7.95;;;5.70;99.90;;;;;;4963905;28;20143;-70
2023/04/15 02:38:33;;;;;;;12.65;7.65;;;5.70;99.90;;;;;;4960217;28;20582;-70
2023/04/15 02:40:58;;;;;;;11.15;7.68;;;5.70;99.90;;;;;;4966511;28;20125;-70
2023/04/15 02:43:24;;;;;;;11.10;8.10;;;5.60;99.90;;;;;;4971778;28;20068;-70
2023/04/15 02:45:50;;;;;;;12.50;7.95;;;5.70;99.90;;;;;;4960626;28;20093;-70
2023/04/15 02:48:18;;;;;;;10.55;8.15;;;5.60;99.90;;;;;;4971037;28;20038;-70
2023/04/15 02:50:45;;;;;;;13.48;8.60;;;5.60;99.90;;;;;;4967628;28;20187;-70
2023/04/15 02:53:12;;;;;;;11.82;8.90;;;5.60;99.90;;;;;;4976131;28;20526;-70
2023/04/15 02:55:37;;;;;;;13.32;8.20;;;5.50;99.90;;;;;;4964173;28;20113;-70
2023/04/15 02:58:03;;;;;;;12.48;8.60;;;5.50;99.90;;;;;;4964158;28;20486;-70
2023/04/15 03:00:29;;;;;;;11.35;8.55;;;5.50;99.90;;;;;;4964297;28;20053;-70
2023/04/15 03:03:01;;;;;;;12.32;9.15;;;5.50;99.90;;;;;;4962884;28;20039;-70
2023/04/15 03:05:27;;;;;;;14.40;9.60;;;5.50;99.90;;;;;;4964666;28;20126;-69
2023/04/15 03:07:53;;;;;;;14.57;9.73;;;5.50;99.90;;;;;;4962029;28;20125;-70
2023/04/15 03:10:19;;;;;;;13.10;9.90;;;5.40;99.90;;;;;;4964722;28;20546;-70
2023/04/15 03:12:45;;;;;;;14.50;9.43;;;5.40;99.90;;;;;;4947716;28;20043;-70
2023/04/15 03:15:11;;;;;;;14.93;9.82;;;5.40;99.90;;;;;;4965547;28;20113;-70
2023/04/15 03:17:37;;;;;;;12.05;9.88;;;5.40;99.90;;;;;;4985744;28;20111;-70
2023/04/15 03:20:04;;;;;;;14.07;9.77;;;5.40;99.90;;;;;;4967999;28;20097;-70
2023/04/15 03:22:33;;;;;;;12.85;10.00;;;5.30;99.90;;;;;;4964767;28;20449;-70
2023/04/15 03:24:59;;;;;;;13.15;10.00;;;5.30;99.90;;;;;;4963954;28;20112;-70
2023/04/15 03:27:25;;;;;;;12.27;9.00;;;5.30;99.90;;;;;;4972062;28;20055;-70
2023/04/15 03:29:50;;;;;;;14.30;9.88;;;5.20;99.90;;;;;;4963559;28;20038;-70
2023/04/15 03:32:16;;;;;;;18.10;10.20;;;5.20;99.90;;;;;;4970480;28;20038;-70
2023/04/15 03:34:42;;;;;;;16.85;10.15;;;5.10;99.90;;;;;;4970664;28;20510;-70
2023/04/15 03:37:08;;;;;;;15.23;10.60;;;5.20;99.90;;;;;;4968285;28;20045;-70
2023/04/15 03:39:34;;;;;;;12.52;10.15;;;5.10;99.90;;;;;;4952750;28;20053;-70
2023/04/15 03:42:00;;;;;;;14.82;9.88;;;5.10;99.90;;;;;;4969412;28;20093;-70
2023/04/15 03:44:26;;;;;;;13.82;10.77;;;5.10;99.90;;;;;;4960806;28;20042;-71
2023/04/15 03:46:53;;;;;;;12.27;9.85;;;5.00;99.90;;;;;;4968230;28;20041;-70
2023/04/15 03:49:19;;;;;;;13.73;9.57;;;5.00;99.90;;;;;;4966310;28;20045;-70
2023/04/15 03:51:45;;;;;;;14.35;10.07;;;5.00;99.90;;;;;;4968861;28;20043;-70
2023/04/15 03:54:14;;;;;;;17.42;11.52;;;5.00;99.90;;;;;;4959962;28;20061;-70
2023/04/15 03:56:40;;;;;;;15.13;10.18;;;5.00;99.90;;;;;;4969659;28;20050;-70
2023/04/15 03:59:06;;;;;;;12.90;10.00;;;4.90;99.90;;;;;;4949633;28;20443;-70
2023/04/15 04:01:31;;;;;;;15.52;10.45;;;4.90;99.90;;;;;;4961679;28;20177;-70
2023/04/15 04:03:57;;;;;;;13.57;10.73;;;4.90;99.90;;;;;;4957907;28;20034;-69
2023/04/15 04:06:23;;;;;;;15.50;10.07;;;4.90;99.90;;;;;;4969306;28;20061;-70
2023/04/15 04:08:49;;;;;;;14.27;9.77;;;4.80;99.90;;;;;;4965385;28;20346;-70
2023/04/15 04:11:15;;;;;;;14.00;10.13;;;4.80;99.90;;;;;;4984752;28;20052;-70
2023/04/15 04:13:40;;;;;;;14.60;10.20;;;4.80;99.90;;;;;;4961123;28;20078;-70
2023/04/15 04:16:07;;;;;;;11.23;9.07;;;4.80;99.90;;;;;;4964001;28;20050;-70
2023/04/15 04:18:32;;;;;;;14.77;10.90;;;4.80;99.90;;;;;;4968813;28;20113;-70
2023/04/15 04:20:59;;;;;;;17.77;11.43;;;4.80;99.90;;;;;;4967457;28;20129;-70
2023/04/15 04:23:24;;;;;;;18.23;11.23;;;4.80;99.90;;;;;;4966882;28;20440;-70
2023/04/15 04:25:51;;;;;;;14.38;10.88;;;4.80;99.90;;;;;;4962195;28;20178;-70
2023/04/15 04:28:17;;;;;;;11.77;10.35;;;4.80;99.90;;;;;;4984050;28;20479;-70
2023/04/15 04:30:43;;;;;;;14.00;10.93;;;4.80;99.90;;;;;;4971265;28;20034;-70
2023/04/15 04:33:09;;;;;;;13.55;10.20;;;4.80;99.90;;;;;;4970330;28;20046;-70
2023/04/15 04:35:36;;;;;;;13.70;10.63;;;4.70;99.90;;;;;;4966837;28;20050;-70
2023/04/15 04:38:02;;;;;;;14.57;11.68;;;4.70;99.90;;;;;;4963353;28;20518;-70
2023/04/15 04:40:28;;;;;;;15.93;11.80;;;4.70;99.90;;;;;;4965139;28;20070;-70
2023/04/15 04:42:54;;;;;;;14.77;11.00;;;4.80;99.90;;;;;;4965415;28;20042;-71
2023/04/15 04:45:20;;;;;;;14.65;11.00;;;4.70;99.90;;;;;;4967058;28;20043;-70
2023/04/15 04:47:46;;;;;;;15.88;12.05;;;4.70;99.90;;;;;;4968629;28;20034;-70
2023/04/15 04:50:12;;;;;;;15.60;11.73;;;4.70;99.90;;;;;;4964394;28;20043;-70
2023/04/15 04:52:38;;;;;;;13.98;11.50;;;4.70;99.90;;;;;;4965525;28;20120;-70
2023/04/15 04:55:04;;;;;;;14.52;11.65;;;4.70;99.90;;;;;;4968527;28;20050;-70
2023/04/15 04:57:30;;;;;;;14.57;11.38;;;4.70;99.90;;;;;;4968899;28;20121;-70
2023/04/15 04:59:56;;;;;;;14.43;11.40;;;4.70;99.90;;;;;;4962855;28;20399;-70
2023/04/15 05:02:22;;;;;;;16.85;11.43;;;4.60;99.90;;;;;;4964287;28;20042;-70
2023/04/15 05:04:49;;;;;;;14.43;10.98;;;4.60;99.90;;;;;;4966617;28;20121;-70
2023/04/15 05:07:14;;;;;;;16.58;12.18;;;4.60;99.90;;;;;;4968381;28;20096;-71
2023/04/15 05:09:40;;;;;;;18.52;13.07;;;4.60;99.90;;;;;;4957073;28;20403;-70
2023/04/15 05:12:07;;;;;;;16.52;12.25;;;4.60;99.90;;;;;;4969736;28;20399;-70
2023/04/15 05:14:33;;;;;;;15.43;11.77;;;4.70;99.90;;;;;;4968731;28;20059;-70
2023/04/15 05:16:59;;;;;;;16.58;12.50;;;4.70;99.90;;;;;;4950901;28;20129;-70
2023/04/15 05:19:25;;;;;;;16.45;12.35;;;4.70;99.90;;;;;;4966994;28;20085;-69
2023/04/15 05:21:51;;;;;;;18.52;13.13;;;4.70;99.90;;;;;;4967930;28;20056;-70
2023/04/15 05:24:17;;;;;;;16.70;13.30;;;4.80;99.90;;;;;;4968881;28;20467;-70
2023/04/15 05:26:42;;;;;;;16.35;13.40;;;4.70;99.90;;;;;;4966676;28;20039;-70
2023/04/15 05:29:08;;;;;;;16.45;13.07;;;4.80;99.90;;;;;;4969191;28;20066;-70
2023/04/15 05:31:35;;;;;;;19.88;14.52;;;4.70;99.90;;;;;;4964189;28;20178;-70
2023/04/15 05:34:00;;;;;;;19.45;15.10;;;4.80;99.90;;;;;;4956417;28;20394;-71
2023/04/15 05:36:27;;;;;;;18.58;15.23;;;4.90;99.90;;;;;;4970084;28;20046;-70
2023/04/15 05:38:53;;;;;;;21.20;15.75;;;5.00;99.90;;;;;;4966082;28;20366;-70
2023/04/15 05:41:19;;;;;;;21.05;16.52;;;5.10;99.90;;;;;;4961081;28;20042;-70
2023/04/15 05:43:44;;;;;;;21.75;15.25;;;5.10;99.90;;;;;;4983893;28;20096;-70
2023/04/15 05:46:10;;;;;;;19.70;15.35;;;5.30;99.90;;;;;;4972855;28;20139;-70
2023/04/15 05:48:36;;;;;;;23.40;17.08;;;5.40;99.90;;;;;;4963433;28;20113;-70
2023/04/15 05:51:01;;;;;;;21.50;15.85;;;5.50;99.90;;;;;;4961414;28;20054;-70
2023/04/15 05:53:27;;;;;;;18.77;14.65;;;5.50;99.90;;;;;;4964951;28;20043;-70
2023/04/15 05:55:53;;;;;;;20.60;15.90;;;5.50;99.90;;;;;;4963818;28;20510;-71
2023/04/15 05:58:18;;;;;;;18.50;14.25;;;5.60;99.90;;;;;;4964150;28;20410;-70
2023/04/15 06:00:45;;;;;;;19.65;15.60;;;5.70;99.90;;;;;;4965439;28;20104;-70
2023/04/15 06:03:11;;;;;;;18.90;15.02;;;5.70;99.90;;;;;;4984156;28;20031;-70
2023/04/15 06:05:37;;;;;;;17.25;14.13;;;5.70;99.90;;;;;;4964476;28;20042;-70
2023/04/15 06:08:03;;;;;;;17.98;14.40;;;5.80;99.90;;;;;;4966633;28;20046;-70
2023/04/15 06:10:29;;;;;;;32.15;24.58;;;5.90;99.90;;;;;;4964424;28;20072;-70
2023/04/15 06:12:55;;;;;;;17.65;14.68;;;5.90;99.90;;;;;;4956195;28;20034;-70
2023/04/15 06:15:21;;;;;;;16.55;14.10;;;6.00;99.90;;;;;;4960868;28;20043;-70
2023/04/15 06:17:47;;;;;;;20.10;15.10;;;6.10;99.90;;;;;;4965385;28;20038;-71
2023/04/15 06:20:13;;;;;;;17.27;14.88;;;6.20;99.90;;;;;;4962728;28;20398;-71
2023/04/15 06:22:39;;;;;;;16.15;14.15;;;6.30;99.90;;;;;;4966440;28;20046;-70
2023/04/15 06:25:07;;;;;;;16.50;13.57;;;6.30;99.90;;;;;;4968461;28;20046;-70
2023/04/15 06:27:35;;;;;;;16.02;13.98;;;6.40;99.90;;;;;;4952364;28;20537;-70
2023/04/15 06:30:01;;;;;;;17.02;13.10;;;6.50;99.90;;;;;;4964335;28;20102;-70
2023/04/15 06:32:27;;;;;;;16.20;13.38;;;6.50;99.90;;;;;;4961341;28;20038;-71
2023/04/15 06:34:52;;;;;;;18.65;13.50;;;6.70;99.90;;;;;;4959907;28;20073;-71
2023/04/15 06:37:18;;;;;;;15.02;12.88;;;6.80;99.90;;;;;;4964154;28;20120;-71
2023/04/15 06:39:44;;;;;;;15.63;13.57;;;6.90;99.90;;;;;;4968117;28;20056;-71
2023/04/15 06:42:12;;;;;;;13.88;12.32;;;7.00;99.90;;;;;;4964033;28;20042;-71
2023/04/15 06:44:38;;;;;;;15.98;13.07;;;7.10;99.90;;;;;;4961565;28;20073;-71
2023/04/15 06:47:04;;;;;;;86.75;63.08;;;7.20;99.90;;;;;;4966170;28;20390;-71
2023/04/15 06:49:30;;;;;;;16.83;14.73;;;7.30;99.90;;;;;;4965663;28;20435;-71
2023/04/15 06:51:56;;;;;;;15.93;13.48;;;7.40;99.90;;;;;;4983136;28;20038;-71
2023/04/15 06:54:22;;;;;;;15.52;12.75;;;7.50;99.90;;;;;;4959977;28;20042;-71
2023/04/15 06:56:48;;;;;;;14.88;12.57;;;7.60;99.90;;;;;;4965246;28;20120;-71
2023/04/15 06:59:14;;;;;;;15.43;13.75;;;7.70;99.90;;;;;;4966685;28;20050;-71
2023/04/15 07:01:40;;;;;;;14.70;12.63;;;7.80;99.90;;;;;;4963245;28;20046;-71
2023/04/15 07:04:06;;;;;;;15.60;13.35;;;7.90;99.90;;;;;;4961770;28;20035;-71
2023/04/15 07:06:32;;;;;;;15.57;13.15;;;8.00;99.90;;;;;;4962965;28;20133;-71
2023/04/15 07:08:58;;;;;;;17.48;13.13;;;8.10;99.90;;;;;;4967788;28;20069;-71
2023/04/15 07:11:25;;;;;;;14.07;12.48;;;8.10;99.90;;;;;;4960009;28;20054;-71
2023/04/15 07:13:51;;;;;;;14.10;12.55;;;8.30;99.90;;;;;;4964337;28;20048;-71
2023/04/15 07:16:17;;;;;;;13.45;11.95;;;8.30;99.90;;;;;;4966883;28;20542;-71
2023/04/15 07:18:43;;;;;;;18.25;12.18;;;8.50;99.90;;;;;;4964608;28;20045;-71
2023/04/15 07:21:08;;;;;;;13.82;11.35;;;8.50;99.90;;;;;;4968196;28;20074;-71
2023/04/15 07:23:34;;;;;;;13.68;11.63;;;8.60;99.90;;;;;;4962549;28;20129;-71
2023/04/15 07:26:00;;;;;;;12.07;9.07;;;8.70;99.90;;;;;;4966534;28;20464;-71
2023/04/15 07:28:26;;;;;;;13.48;10.57;;;8.80;99.90;;;;;;4967168;28;20057;-71
2023/04/15 07:30:52;;;;;;;11.45;9.45;;;8.90;99.90;;;;;;4960817;28;20046;-71
2023/04/15 07:33:18;;;;;;;13.98;10.48;;;8.80;99.90;;;;;;4983116;28;20047;-71
2023/04/15 07:35:44;;;;;;;12.80;9.15;;;8.80;99.90;;;;;;4963182;28;20043;-71
2023/04/15 07:38:12;;;;;;;10.90;9.27;;;8.90;99.90;;;;;;4978222;28;20034;-71
2023/04/15 07:40:38;;;;;;;8.77;7.88;;;9.00;99.90;;;;;;4982695;28;20044;-72
2023/04/15 07:43:04;;;;;;;11.15;9.48;;;9.00;99.90;;;;;;4976803;28;20047;-71
2023/04/15 07:45:31;;;;;;;12.63;9.93;;;8.90;99.90;;;;;;4968095;28;20039;-71
2023/04/15 07:47:57;;;;;;;10.93;9.70;;;9.00;99.90;;;;;;4963679;28;20122;-71
2023/04/15 07:50:23;;;;;;;11.15;9.88;;;9.00;99.90;;;;;;4946849;28;20562;-71
2023/04/15 07:52:50;;;;;;;14.63;10.13;;;9.10;99.90;;;;;;4981128;28;20047;-71
2023/04/15 07:55:18;;;;;;;11.35;9.40;;;9.20;99.90;;;;;;4961324;28;20524;-71
2023/04/15 07:57:46;;;;;;;11.52;8.35;;;9.20;99.90;;;;;;4965095;28;20081;-71
2023/04/15 08:00:12;;;;;;;10.35;8.88;;;9.20;99.90;;;;;;4968529;28;20046;-71
2023/04/15 08:02:38;;;;;;;9.75;8.40;;;9.30;99.90;;;;;;4978485;28;20534;-71
2023/04/15 08:05:04;;;;;;;10.73;8.45;;;9.40;99.90;;;;;;4971112;28;20039;-71
2023/04/15 08:07:30;;;;;;;8.57;7.20;;;9.50;99.90;;;;;;4981995;28;20042;-72
2023/04/15 08:09:56;;;;;;;9.07;7.32;;;9.60;99.90;;;;;;4984794;28;20042;-71
2023/04/15 08:12:23;;;;;;;10.20;6.38;;;9.60;99.90;;;;;;4979478;28;20126;-71
2023/04/15 08:14:50;;;;;;;7.00;6.20;;;9.70;99.90;;;;;;4968031;28;20202;-72
2023/04/15 08:17:15;;;;;;;9.55;6.78;;;9.70;99.90;;;;;;4963631;28;20051;-72
2023/04/15 08:19:41;;;;;;;8.85;6.32;;;9.70;99.90;;;;;;4963282;28;20045;-72
2023/04/15 08:22:07;;;;;;;6.78;5.47;;;9.80;99.90;;;;;;4960740;28;20046;-72
2023/04/15 08:24:33;;;;;;;7.70;5.97;;;9.70;99.90;;;;;;4951196;28;20041;-72
2023/04/15 08:27:00;;;;;;;7.07;5.10;;;9.70;99.90;;;;;;4965009;28;20050;-72
2023/04/15 08:29:26;;;;;;;6.78;5.28;;;9.80;99.90;;;;;;4970822;28;20046;-72
2023/04/15 08:31:53;;;;;;;7.00;4.78;;;9.80;99.90;;;;;;4966345;28;20047;-72
2023/04/15 08:34:18;;;;;;;7.70;4.60;;;9.80;99.90;;;;;;4977583;28;20053;-71
2023/04/15 08:36:44;;;;;;;6.07;4.57;;;9.80;99.90;;;;;;4965850;28;20268;-71
2023/04/15 08:39:10;;;;;;;5.78;3.90;;;9.90;99.90;;;;;;4956213;28;20142;-71
2023/04/15 08:41:44;;;;;;;5.35;3.55;;;10.40;99.90;;;;;;4978546;28;20043;-72
2023/04/15 08:44:10;;;;;;;7.78;4.47;;;11.00;99.90;;;;;;4940656;28;20047;-71
2023/04/15 08:46:36;;;;;;;5.70;3.60;;;11.30;99.90;;;;;;4960992;28;20035;-70
2023/04/15 08:49:08;;;;;;;6.50;4.25;;;11.40;99.90;;;;;;4966907;28;20482;-71
2023/04/15 08:51:34;;;;;;;4.82;2.47;;;11.30;99.90;;;;;;4967141;28;20050;-70
2023/04/15 08:54:01;;;;;;;5.65;4.25;;;11.10;99.90;;;;;;4964462;28;20050;-70
2023/04/15 08:56:29;;;;;;;6.68;4.55;;;10.80;99.90;;;;;;4962995;28;20050;-70
2023/04/15 08:58:56;;;;;;;5.55;4.18;;;10.60;99.90;;;;;;4966884;28;20053;-70
2023/04/15 09:01:22;;;;;;;6.20;4.57;;;10.50;99.90;;;;;;4967811;28;20047;-71
2023/04/15 09:03:49;;;;;;;8.63;4.90;;;10.40;99.90;;;;;;4966177;28;20403;-70
2023/04/15 09:06:18;;;;;;;6.57;4.63;;;10.30;99.90;;;;;;4965559;28;20055;-70
2023/04/15 09:08:43;;;;;;;6.93;4.70;;;10.20;99.90;;;;;;4960373;28;20070;-70
2023/04/15 09:11:10;;;;;;;6.93;4.93;;;10.10;99.90;;;;;;4950066;28;20070;-70
2023/04/15 09:13:35;;;;;;;8.25;5.13;;;10.00;99.90;;;;;;4963546;28;20539;-70
2023/04/15 09:16:03;;;;;;;9.13;4.70;;;10.00;99.90;;;;;;4966873;28;20141;-71
2023/04/15 09:18:37;;;;;;;3.83;3.28;;;9.80;99.90;;;;;;4951671;28;20051;-71
2023/04/15 09:21:05;;;;;;;4.88;3.40;;;9.80;99.90;;;;;;4950700;28;20387;-71
2023/04/15 09:23:32;;;;;;;7.88;3.95;;;9.70;99.90;;;;;;4964741;28;20094;-70
2023/04/15 09:25:58;;;;;;;6.80;4.32;;;9.70;99.90;;;;;;4960763;28;20051;-71
2023/04/15 09:28:28;;;;;;;7.65;4.78;;;9.70;99.90;;;;;;4968503;28;20046;-71
2023/04/15 09:30:58;;;;;;;8.40;4.28;;;9.60;99.90;;;;;;4961388;28;20150;-71
2023/04/15 09:33:26;;;;;;;9.02;4.32;;;9.60;99.90;;;;;;4965468;28;20096;-71
2023/04/15 09:36:00;;;;;;;6.57;3.38;;;9.60;99.90;;;;;;4963691;28;20295;-71
2023/04/15 09:38:27;;;;;;;6.45;3.25;;;9.60;99.90;;;;;;4975330;28;20519;-71
2023/04/15 09:40:53;;;;;;;5.97;3.45;;;9.60;99.90;;;;;;4962453;28;20356;-71
2023/04/15 09:43:19;;;;;;;7.95;4.10;;;9.60;99.90;;;;;;4947529;28;20477;-71
2023/04/15 09:45:52;;;;;;;6.00;2.90;;;9.60;99.90;;;;;;4956798;28;20055;-71
2023/04/15 09:48:25;;;;;;;6.30;2.93;;;9.50;99.90;;;;;;4966375;28;20038;-71
2023/04/15 09:50:56;;;;;;;5.28;2.60;;;9.40;99.90;;;;;;4966378;28;20151;-71
2023/04/15 09:53:23;;;;;;;6.03;2.60;;;9.40;99.90;;;;;;4977740;28;20081;-70
2023/04/15 09:55:51;;;;;;;5.65;2.40;;;9.40;99.90;;;;;;4963782;28;20050;-71
2023/04/15 09:58:27;;;;;;;4.75;1.98;;;9.70;99.90;;;;;;4945064;28;20050;-72
2023/04/15 10:00:56;;;;;;;3.72;1.63;;;9.90;99.90;;;;;;4959539;28;20070;-71
2023/04/15 10:03:24;;;;;;;4.15;1.58;;;9.90;99.90;;;;;;4960578;28;20027;-71
2023/04/15 10:05:52;;;;;;;2.90;1.75;;;9.80;99.90;;;;;;4950701;28;20031;-71
2023/04/15 10:08:23;;;;;;;4.70;2.10;;;9.80;99.90;;;;;;4959856;28;20047;-71
2023/04/15 10:10:51;;;;;;;3.53;1.85;;;9.70;99.90;;;;;;4965649;28;20039;-70
2023/04/15 10:13:19;;;;;;;3.55;1.58;;;9.70;99.90;;;;;;4958006;28;20140;-70
2023/04/15 10:15:57;;;;;;;3.78;1.92;;;9.70;99.90;;;;;;4960466;28;20542;-70
2023/04/15 10:18:25;;;;;;;3.63;1.60;;;9.70;99.90;;;;;;4961892;28;20124;-70
2023/04/15 10:20:52;;;;;;;5.75;1.95;;;9.60;99.90;;;;;;4960358;28;20404;-70
2023/04/15 10:23:20;;;;;;;3.40;1.33;;;9.60;99.90;;;;;;4965797;28;20046;-70
2023/04/15 10:25:53;;;;;;;1.90;1.17;;;9.70;99.90;;;;;;4956972;28;20099;-70
2023/04/15 10:28:19;;;;;;;2.83;1.35;;;9.70;99.90;;;;;;4958996;28;20225;-71
2023/04/15 10:30:46;;;;;;;4.38;1.90;;;9.80;99.90;;;;;;4961691;28;20113;-71
2023/04/15 10:33:13;;;;;;;1.75;1.00;;;9.80;99.90;;;;;;4957285;28;20126;-71
2023/04/15 10:35:39;;;;;;;2.13;1.00;;;9.90;99.90;;;;;;4975507;28;20618;-70
2023/04/15 10:38:31;;;;;;;4.13;1.40;;;10.00;99.90;;;;;;4957897;28;20054;-71
2023/04/15 10:41:16;;;;;;;4.00;1.38;;;9.90;99.90;;;;;;4977680;28;20038;-71
2023/04/15 10:43:46;;;;;;;;;;;10.00;99.90;;;;;;4963712;28;20101;-71
2023/04/15 10:46:12;;;;;;;3.25;1.42;;;10.00;99.90;;;;;;4962851;28;20032;-71
2023/04/15 10:48:38;;;;;;;2.40;1.23;;;10.00;99.90;;;;;;4975877;28;21228;-71
2023/04/15 10:51:04;;;;;;;2.75;1.05;;;10.00;99.90;;;;;;4960156;28;20046;-70
2023/04/15 10:53:30;;;;;;;4.13;1.20;;;10.00;99.90;;;;;;4952509;28;20482;-70
2023/04/15 10:55:59;;;;;;;3.30;1.50;;;10.00;99.90;;;;;;4957610;28;20049;-71
2023/04/15 10:58:25;;;;;;;1.90;1.42;;;10.00;99.90;;;;;;4964027;28;23665;-71
2023/04/15 11:00:52;;;;;;;2.80;1.30;;;10.00;99.90;;;;;;4958947;28;20459;-71
2023/04/15 11:03:39;;;;;;;3.35;1.10;;;10.10;99.90;;;;;;4956631;28;20414;-71
2023/04/15 11:06:06;;;;;;;2.88;1.17;;;10.00;99.90;;;;;;4964817;28;20043;-70
2023/04/15 11:08:53;;;;;;;1.90;0.95;;;10.00;99.90;;;;;;4963011;28;20046;-71
2023/04/15 11:11:19;;;;;;;6.50;1.10;;;9.90;99.90;;;;;;4959512;28;20065;-71
2023/04/15 11:13:50;;;;;;;2.88;1.20;;;9.90;99.90;;;;;;4954675;28;20113;-71
2023/04/15 11:16:16;;;;;;;3.85;1.10;;;9.90;99.90;;;;;;4962722;28;20059;-70
2023/04/15 11:18:52;;;;;;;2.97;0.85;;;9.90;99.90;;;;;;4956900;28;20054;-71
2023/04/15 11:21:18;;;;;;;1.75;0.93;;;10.00;99.90;;;;;;4975775;28;20047;-70
2023/04/15 11:23:45;;;;;;;5.03;1.30;;;10.00;99.90;;;;;;4955873;28;20039;-71
2023/04/15 11:26:12;;;;;;;2.78;1.10;;;10.00;99.90;;;;;;4960756;28;20041;-70
2023/04/15 11:28:43;;;;;;;2.42;0.95;;;10.00;99.90;;;;;;4973866;28;20050;-70
2023/04/15 11:31:12;;;;;;;5.03;1.15;;;10.00;99.90;;;;;;4960756;28;20066;-70
2023/04/15 11:33:58;;;;;;;2.45;1.15;;;10.10;99.90;;;;;;4958659;28;20073;-70
2023/04/15 11:36:28;;;;;;;4.30;1.42;;;10.10;99.90;;;;;;4970191;28;20470;-70
2023/04/15 11:38:55;;;;;;;3.88;1.20;;;10.00;99.90;;;;;;4964487;28;20118;-70
2023/04/15 11:41:24;;;;;;;2.92;1.15;;;9.90;99.90;;;;;;4965365;28;20039;-70
2023/04/15 11:43:51;;;;;;;3.17;1.35;;;9.90;99.90;;;;;;4965004;28;20042;-70
2023/04/15 11:46:17;;;;;;;4.68;1.88;;;9.90;99.90;;;;;;4951444;28;20039;-69
2023/04/15 11:48:45;;;;;;;5.20;1.67;;;9.90;99.90;;;;;;4970009;28;20035;-70
2023/04/15 11:51:11;;;;;;;4.20;1.27;;;10.00;99.90;;;;;;4978956;28;20055;-69
2023/04/15 11:53:39;;;;;;;6.10;1.65;;;9.90;99.90;;;;;;4963930;28;20039;-70
2023/04/15 11:56:06;;;;;;;4.22;1.65;;;9.90;99.90;;;;;;4962383;28;20054;-70
2023/04/15 11:58:38;;;;;;;4.70;1.60;;;10.00;99.90;;;;;;4967505;28;20042;-70
2023/04/15 12:01:06;;;;;;;4.32;1.40;;;9.90;99.90;;;;;;4961617;28;20046;-70
2023/04/15 12:03:51;;;;;;;5.40;1.73;;;9.90;99.90;;;;;;4966997;28;20113;-70
2023/04/15 12:06:18;;;;;;;5.95;1.85;;;9.80;99.90;;;;;;4963038;28;20043;-70
2023/04/15 12:08:49;;;;;;;4.47;1.70;;;9.80;99.90;;;;;;4968587;28;20518;-70
2023/04/15 12:11:15;;;;;;;5.35;1.90;;;9.90;99.90;;;;;;4979681;28;20129;-70
2023/04/15 12:13:49;;;;;;;4.45;1.35;;;9.90;99.90;;;;;;4965655;28;20050;-70
2023/04/15 12:16:19;;;;;;;4.28;1.67;;;9.90;99.90;;;;;;4962289;28;20161;-70
2023/04/15 12:18:46;;;;;;;4.82;1.60;;;9.90;99.90;;;;;;4958806;28;20121;-70
2023/04/15 12:21:12;;;;;;;4.43;1.48;;;10.00;99.90;;;;;;4963775;28;20137;-70
2023/04/15 12:23:49;;;;;;;5.53;1.20;;;10.10;99.90;;;;;;4964811;28;20038;-69
2023/04/15 12:26:14;;;;;;;5.05;1.17;;;10.20;99.90;;;;;;4965564;28;20043;-70
2023/04/15 12:28:43;;;;;;;5.15;1.27;;;10.30;99.90;;;;;;4960920;28;20042;-70
2023/04/15 12:31:10;;;;;;;5.38;1.38;;;10.30;99.90;;;;;;4970142;28;20509;-70
2023/04/15 12:33:36;;;;;;;7.65;1.60;;;10.30;99.90;;;;;;4962210;28;20054;-70
2023/04/15 12:36:03;;;;;;;4.95;1.25;;;10.30;99.90;;;;;;4964349;28;20480;-70
2023/04/15 12:38:30;;;;;;;5.53;1.42;;;10.30;99.90;;;;;;4960042;28;20121;-70
2023/04/15 12:40:57;;;;;;;5.00;1.40;;;10.10;99.90;;;;;;4963471;28;20031;-70
2023/04/15 12:43:22;;;;;;;4.13;1.00;;;10.00;99.90;;;;;;4961410;28;20034;-70
2023/04/15 12:45:48;;;;;;;5.75;1.17;;;9.90;99.90;;;;;;4960856;28;20039;-71
2023/04/15 12:48:14;;;;;;;6.57;1.42;;;9.90;99.90;;;;;;4959997;28;20105;-71